Time;durP1;ratioP1;P1;durP2;ratioP2;P2;SDS_P1;SDS_P2;PMS_P1;PMS_P2;Temp;Humidity;BMP_temperature;BMP_pressure;BME280_temperature;BME280_humidity;BME280_pressure;Samples;Min_cycle;Max_cycle;Signal;HPM_P1;HPM_P2
2021/04/20 00:00:18;;;;;;;3.83;3.10;;;;;;;;;;5098657;28;20366;-42
2021/04/20 00:02:45;;;;;;;3.25;2.95;;;;;;;;;;5098921;28;20036;-42
2021/04/20 00:05:14;;;;;;;3.30;3.00;;;;;;;;;;5098635;28;20044;-42
2021/04/20 00:07:41;;;;;;;4.15;3.20;;;;;;;;;;5111715;28;20460;-43
2021/04/20 00:10:10;;;;;;;4.38;3.22;;;;;;;;;;5118948;28;20353;-43
2021/04/20 00:12:37;;;;;;;3.63;3.20;;;;;;;;;;5119363;28;20446;-43
2021/04/20 00:15:10;;;;;;;3.33;3.03;;;;;;;;;;5117009;28;20040;-42
2021/04/20 00:17:37;;;;;;;3.40;3.10;;;;;;;;;;5098521;28;20040;-43
2021/04/20 00:20:07;;;;;;;3.03;2.72;;;;;;;;;;5098129;28;20470;-42
2021/04/20 00:22:34;;;;;;;3.70;3.30;;;;;;;;;;5098412;28;20044;-43
2021/04/20 00:25:01;;;;;;;3.75;3.22;;;;;;;;;;5098242;28;20047;-42
2021/04/20 00:27:28;;;;;;;3.72;3.30;;;;;;;;;;5098260;28;20066;-42
2021/04/20 00:30:04;;;;;;;3.30;3.00;;;;;;;;;;5098061;28;20074;-42
2021/04/20 00:32:31;;;;;;;4.30;3.17;;;;;;;;;;5098473;28;20405;-43
2021/04/20 00:34:57;;;;;;;3.58;3.10;;;;;;;;;;5098461;28;20485;-41
2021/04/20 00:37:24;;;;;;;3.40;3.10;;;;;;;;;;5107569;28;20043;-42
2021/04/20 00:39:51;;;;;;;3.47;2.90;;;;;;;;;;5118314;28;20442;-42
2021/04/20 00:42:18;;;;;;;3.60;3.13;;;;;;;;;;5118391;28;20047;-43
2021/04/20 00:44:45;;;;;;;3.83;3.10;;;;;;;;;;5118413;28;20044;-44
2021/04/20 00:47:12;;;;;;;4.00;3.40;;;;;;;;;;5118194;28;20043;-41
2021/04/20 00:49:39;;;;;;;3.97;3.30;;;;;;;;;;5118244;28;20035;-43
2021/04/20 00:52:06;;;;;;;4.47;3.45;;;;;;;;;;5118105;28;20050;-44
2021/04/20 00:54:34;;;;;;;3.40;3.10;;;;;;;;;;5117961;28;20047;-43
2021/04/20 00:57:01;;;;;;;3.63;3.15;;;;;;;;;;5092826;28;20044;-42
2021/04/20 00:59:28;;;;;;;4.40;3.60;;;;;;;;;;5097461;28;20050;-42
2021/04/20 01:01:54;;;;;;;4.18;3.78;;;;;;;;;;5096879;28;20786;-43
2021/04/20 01:04:22;;;;;;;3.83;3.50;;;;;;;;;;5112261;28;20040;-44
2021/04/20 01:06:49;;;;;;;4.63;4.00;;;;;;;;;;5099401;28;20040;-43
2021/04/20 01:09:16;;;;;;;4.18;3.78;;;;;;;;;;5117731;28;20051;-42
2021/04/20 01:11:44;;;;;;;4.20;3.80;;;;;;;;;;5118058;28;20039;-44
2021/04/20 01:14:12;;;;;;;4.10;3.72;;;;;;;;;;5117799;28;20042;-43
2021/04/20 01:16:39;;;;;;;4.13;3.30;;;;;;;;;;5117849;28;20047;-43
2021/04/20 01:19:07;;;;;;;4.22;3.83;;;;;;;;;;5114470;28;20430;-42
2021/04/20 01:21:38;;;;;;;3.78;3.38;;;;;;;;;;5077176;28;20047;-42
2021/04/20 01:24:08;;;;;;;4.45;4.00;;;;;;;;;;5076901;28;20047;-43
2021/04/20 01:26:37;;;;;;;4.18;3.78;;;;;;;;;;5076958;28;20367;-43
2021/04/20 01:29:05;;;;;;;4.43;4.03;;;;;;;;;;5082926;28;20049;-42
2021/04/20 01:31:32;;;;;;;4.30;3.70;;;;;;;;;;5076905;28;20051;-42
2021/04/20 01:33:59;;;;;;;5.00;3.78;;;;;;;;;;5076686;28;20048;-43
2021/04/20 01:36:27;;;;;;;3.97;3.58;;;;;;;;;;5079371;28;20067;-43
2021/04/20 01:38:55;;;;;;;3.85;3.47;;;;;;;;;;5116844;28;20039;-44
2021/04/20 01:41:24;;;;;;;4.18;3.75;;;;;;;;;;5116449;28;20046;-44
2021/04/20 01:43:52;;;;;;;4.63;3.38;;;;;;;;;;5097986;28;20359;-42
2021/04/20 01:46:19;;;;;;;4.25;3.85;;;;;;;;;;5076549;28;20048;-42
2021/04/20 01:48:46;;;;;;;4.43;4.03;;;;;;;;;;5109201;28;20042;-43
2021/04/20 01:51:14;;;;;;;4.50;4.10;;;;;;;;;;5117152;28;20039;-43
2021/04/20 01:53:41;;;;;;;5.15;3.78;;;;;;;;;;5116999;28;20036;-42
2021/04/20 01:56:08;;;;;;;5.00;4.32;;;;;;;;;;5116806;28;20050;-43
2021/04/20 01:58:37;;;;;;;5.70;4.47;;;;;;;;;;5098690;28;20051;-44
2021/04/20 02:01:05;;;;;;;5.57;5.00;;;;;;;;;;5116760;28;20121;-42
2021/04/20 02:03:32;;;;;;;5.63;5.03;;;;;;;;;;5116686;28;20054;-45
2021/04/20 02:05:59;;;;;;;5.35;4.53;;;;;;;;;;5115849;28;20042;-48
2021/04/20 02:08:26;;;;;;;4.90;4.40;;;;;;;;;;5102948;28;20036;-42
2021/04/20 02:10:53;;;;;;;4.63;4.20;;;;;;;;;;5096375;28;20044;-44
2021/04/20 02:13:20;;;;;;;5.68;4.63;;;;;;;;;;5096571;28;20048;-44
2021/04/20 02:15:47;;;;;;;5.25;4.57;;;;;;;;;;5096189;28;20237;-44
2021/04/20 02:18:14;;;;;;;6.38;4.88;;;;;;;;;;5095331;28;20054;-42
2021/04/20 02:20:42;;;;;;;5.85;5.25;;;;;;;;;;5096118;28;20047;-43
2021/04/20 02:23:09;;;;;;;5.35;4.85;;;;;;;;;;5096072;28;20039;-43
2021/04/20 02:25:37;;;;;;;5.43;4.57;;;;;;;;;;5096021;28;20036;-43
2021/04/20 02:28:04;;;;;;;5.43;4.40;;;;;;;;;;5095536;28;20047;-43
2021/04/20 02:30:31;;;;;;;5.25;4.75;;;;;;;;;;5095931;28;20048;-43
2021/04/20 02:32:58;;;;;;;5.00;4.50;;;;;;;;;;5095768;28;20050;-42
2021/04/20 02:35:27;;;;;;;5.07;4.57;;;;;;;;;;5095929;28;20051;-42
2021/04/20 02:37:54;;;;;;;5.28;4.78;;;;;;;;;;5110247;28;20046;-49
2021/04/20 02:40:22;;;;;;;5.57;4.93;;;;;;;;;;5115894;28;20047;-42
2021/04/20 02:42:50;;;;;;;5.25;4.75;;;;;;;;;;5115973;28;20039;-45
2021/04/20 02:45:17;;;;;;;5.95;5.20;;;;;;;;;;5116109;28;20376;-47
2021/04/20 02:47:44;;;;;;;5.85;5.25;;;;;;;;;;5092863;28;20343;-42
2021/04/20 02:50:22;;;;;;;5.80;5.20;;;;;;;;;;5115749;28;20050;-42
2021/04/20 02:52:50;;;;;;;6.20;5.50;;;;;;;;;;5115911;28;20361;-43
2021/04/20 02:55:18;;;;;;;7.50;6.00;;;;;;;;;;5115854;28;20047;-43
2021/04/20 02:57:50;;;;;;;7.20;5.82;;;;;;;;;;5096467;28;20047;-41
2021/04/20 03:00:19;;;;;;;7.03;6.32;;;;;;;;;;5115605;28;20058;-43
2021/04/20 03:02:47;;;;;;;7.72;6.10;;;;;;;;;;5115681;28;20047;-43
2021/04/20 03:05:15;;;;;;;6.55;5.72;;;;;;;;;;5115717;28;20496;-44
2021/04/20 03:07:42;;;;;;;7.88;6.53;;;;;;;;;;5110222;28;20043;-42
2021/04/20 03:10:09;;;;;;;6.85;6.15;;;;;;;;;;5094915;28;20051;-43
2021/04/20 03:12:37;;;;;;;6.78;6.07;;;;;;;;;;5095519;28;20040;-43
2021/04/20 03:15:05;;;;;;;6.88;5.78;;;;;;;;;;5095540;28;20047;-44
2021/04/20 03:17:31;;;;;;;6.55;5.82;;;;;;;;;;5095043;28;20454;-43
2021/04/20 03:19:58;;;;;;;6.18;5.57;;;;;;;;;;5088053;28;20366;-42
2021/04/20 03:22:26;;;;;;;7.10;6.05;;;;;;;;;;5075120;28;20043;-42
2021/04/20 03:25:02;;;;;;;7.88;6.22;;;;;;;;;;5102685;28;20442;-41
2021/04/20 03:27:29;;;;;;;7.25;6.47;;;;;;;;;;5097817;28;20039;-42
2021/04/20 03:29:56;;;;;;;7.10;6.40;;;;;;;;;;5115410;28;20036;-42
2021/04/20 03:32:23;;;;;;;9.07;6.45;;;;;;;;;;5115605;28;20354;-42
2021/04/20 03:34:53;;;;;;;8.00;6.28;;;;;;;;;;5115131;28;20055;-42
2021/04/20 03:37:40;;;;;;;7.03;6.32;;;;;;;;;;5109221;28;20079;-42
2021/04/20 03:40:10;;;;;;;7.03;6.32;;;;;;;;;;5074605;28;20478;-43
2021/04/20 03:42:41;;;;;;;7.57;6.70;;;;;;;;;;5074888;28;20463;-42
2021/04/20 03:45:12;;;;;;;7.45;6.63;;;;;;;;;;5080057;28;20059;-43
2021/04/20 03:47:42;;;;;;;8.98;8.07;;;;;;;;;;5115608;28;20039;-43
2021/04/20 03:50:12;;;;;;;7.95;7.15;;;;;;;;;;5115203;28;20448;-43
2021/04/20 03:52:51;;;;;;;7.20;6.50;;;;;;;;;;5115437;28;20051;-44
2021/04/20 03:55:19;;;;;;;7.95;7.10;;;;;;;;;;5115194;28;20345;-42
2021/04/20 03:57:46;;;;;;;8.02;7.22;;;;;;;;;;5115396;28;20039;-43
2021/04/20 04:00:14;;;;;;;6.82;6.13;;;;;;;;;;5115124;28;20043;-43
2021/04/20 04:02:43;;;;;;;7.30;6.60;;;;;;;;;;5115129;28;20072;-42
2021/04/20 04:05:12;;;;;;;7.32;6.63;;;;;;;;;;5115035;28;20476;-43
2021/04/20 04:07:39;;;;;;;7.97;7.10;;;;;;;;;;5114895;28;20048;-42
2021/04/20 04:10:07;;;;;;;7.65;6.95;;;;;;;;;;5115051;28;20047;-42
2021/04/20 04:12:36;;;;;;;6.88;6.28;;;;;;;;;;5115301;28;20044;-43
2021/04/20 04:15:03;;;;;;;7.43;6.45;;;;;;;;;;5111065;28;20489;-43
2021/04/20 04:17:32;;;;;;;7.38;6.63;;;;;;;;;;5095123;28;20044;-42
2021/04/20 04:20:02;;;;;;;8.77;7.05;;;;;;;;;;5094385;28;20050;-42
2021/04/20 04:22:31;;;;;;;7.97;7.03;;;;;;;;;;5093668;28;20040;-41
2021/04/20 04:24:59;;;;;;;7.68;6.88;;;;;;;;;;5088916;28;20059;-42
2021/04/20 04:27:28;;;;;;;9.15;7.88;;;;;;;;;;5105543;28;20044;-48
2021/04/20 04:30:01;;;;;;;7.88;7.07;;;;;;;;;;5110705;28;20054;-44
2021/04/20 04:32:31;;;;;;;10.00;7.57;;;;;;;;;;5111250;28;20074;-44
2021/04/20 04:35:00;;;;;;;9.55;8.32;;;;;;;;;;5082130;28;20047;-43
2021/04/20 04:37:27;;;;;;;8.75;7.85;;;;;;;;;;5108503;28;20335;-43
2021/04/20 04:39:54;;;;;;;146.18;19.38;;;;;;;;;;5118333;28;20051;-46
2021/04/20 04:42:22;;;;;;;8.60;7.70;;;;;;;;;;5085012;28;20365;-43
2021/04/20 04:44:49;;;;;;;8.85;7.95;;;;;;;;;;5087967;28;20048;-42
2021/04/20 04:47:16;;;;;;;9.02;8.13;;;;;;;;;;5118390;28;20040;-44
2021/04/20 04:49:45;;;;;;;9.75;8.32;;;;;;;;;;5096427;28;20055;-42
2021/04/20 04:52:13;;;;;;;9.95;8.95;;;;;;;;;;5077689;28;20047;-42
2021/04/20 04:54:41;;;;;;;9.40;8.50;;;;;;;;;;5077740;28;20048;-41
2021/04/20 04:57:09;;;;;;;10.13;9.13;;;;;;;;;;5104961;28;20041;-42
2021/04/20 04:59:37;;;;;;;9.35;8.45;;;;;;;;;;5077360;28;20041;-42
2021/04/20 05:02:04;;;;;;;9.98;8.98;;;;;;;;;;5077358;28;20367;-41
2021/04/20 05:04:31;;;;;;;9.05;8.20;;;;;;;;;;5059843;28;20049;-42
2021/04/20 05:06:58;;;;;;;10.07;9.07;;;;;;;;;;5102445;28;20051;-41
2021/04/20 05:09:25;;;;;;;11.02;9.27;;;;;;;;;;5117923;28;20042;-42
2021/04/20 05:11:52;;;;;;;10.98;9.77;;;;;;;;;;5107398;28;20049;-42
2021/04/20 05:14:20;;;;;;;10.45;9.30;;;;;;;;;;5077259;28;20060;-42
2021/04/20 05:16:48;;;;;;;10.30;9.30;;;;;;;;;;5093577;28;20048;-41
2021/04/20 05:19:25;;;;;;;10.73;9.63;;;;;;;;;;5097417;28;20063;-42
2021/04/20 05:21:52;;;;;;;11.27;9.75;;;;;;;;;;5097270;28;20052;-42
2021/04/20 05:24:20;;;;;;;11.50;10.30;;;;;;;;;;5097245;28;20248;-42
2021/04/20 05:26:47;;;;;;;12.23;9.45;;;;;;;;;;5097016;28;20036;-41
2021/04/20 05:29:14;;;;;;;10.95;9.77;;;;;;;;;;5097073;28;20043;-42
2021/04/20 05:31:41;;;;;;;11.57;10.13;;;;;;;;;;5097107;28;20465;-41
2021/04/20 05:34:08;;;;;;;10.63;9.48;;;;;;;;;;5079109;28;20052;-41
2021/04/20 05:36:35;;;;;;;11.82;10.48;;;;;;;;;;5100515;28;20054;-42
2021/04/20 05:39:06;;;;;;;11.75;10.57;;;;;;;;;;5082918;28;20047;-44
2021/04/20 05:41:34;;;;;;;10.48;9.48;;;;;;;;;;5076604;28;20044;-43
2021/04/20 05:44:02;;;;;;;10.60;9.52;;;;;;;;;;5075796;28;20359;-42
2021/04/20 05:46:29;;;;;;;11.07;9.98;;;;;;;;;;5089181;28;20253;-43
2021/04/20 05:48:57;;;;;;;12.27;10.20;;;;;;;;;;5096780;28;20036;-43
2021/04/20 05:51:24;;;;;;;12.23;10.18;;;;;;;;;;5096872;28;20058;-41
2021/04/20 05:53:52;;;;;;;11.65;10.48;;;;;;;;;;5081936;28;20355;-41
2021/04/20 05:56:20;;;;;;;12.10;10.65;;;;;;;;;;5087381;28;20052;-43
2021/04/20 05:58:51;;;;;;;12.50;11.20;;;;;;;;;;5073805;28;20040;-42
2021/04/20 06:01:18;;;;;;;10.43;9.43;;;;;;;;;;5076199;28;20051;-41
2021/04/20 06:03:46;;;;;;;11.10;10.00;;;;;;;;;;5076193;28;20056;-42
2021/04/20 06:06:20;;;;;;;11.85;10.65;;;;;;;;;;5086675;28;20435;-41
2021/04/20 06:08:48;;;;;;;12.48;11.20;;;;;;;;;;5062983;28;20044;-44
2021/04/20 06:11:15;;;;;;;12.13;10.80;;;;;;;;;;5076097;28;20047;-42
2021/04/20 06:13:42;;;;;;;12.13;10.48;;;;;;;;;;5076065;28;20040;-43
2021/04/20 06:16:10;;;;;;;11.55;10.20;;;;;;;;;;5084606;28;20056;-42
2021/04/20 06:18:37;;;;;;;12.15;10.93;;;;;;;;;;5079595;28;20043;-42
2021/04/20 06:21:05;;;;;;;12.07;10.88;;;;;;;;;;5075830;28;20359;-43
2021/04/20 06:23:34;;;;;;;12.38;11.07;;;;;;;;;;5076036;28;20363;-42
2021/04/20 06:26:02;;;;;;;13.50;12.10;;;;;;;;;;5082679;28;20328;-42
2021/04/20 06:28:31;;;;;;;12.82;11.40;;;;;;;;;;5095025;28;20047;-43
2021/04/20 06:31:00;;;;;;;12.02;10.82;;;;;;;;;;5075116;28;20048;-42
2021/04/20 06:33:27;;;;;;;12.93;11.45;;;;;;;;;;5075249;28;20055;-42
2021/04/20 06:35:55;;;;;;;12.02;10.63;;;;;;;;;;5082019;28;20055;-43
2021/04/20 06:38:22;;;;;;;18.05;13.90;;;;;;;;;;5113537;28;20058;-42
2021/04/20 06:40:52;;;;;;;17.00;13.23;;;;;;;;;;5116252;28;20055;-42
2021/04/20 06:43:45;;;;;;;28.17;20.80;;;;;;;;;;5098236;28;20457;-42
2021/04/20 06:46:15;;;;;;;14.48;12.85;;;;;;;;;;5068982;28;20052;-43
2021/04/20 06:48:44;;;;;;;15.48;13.38;;;;;;;;;;5094971;28;20032;-43
2021/04/20 06:51:14;;;;;;;15.25;12.48;;;;;;;;;;5077634;28;20047;-43
2021/04/20 06:54:03;;;;;;;13.25;11.52;;;;;;;;;;5080376;28;20048;-42
2021/04/20 06:56:40;;;;;;;12.75;11.05;;;;;;;;;;5086186;28;20040;-42
2021/04/20 06:59:28;;;;;;;11.48;9.95;;;;;;;;;;5075280;28;20052;-43
2021/04/20 07:02:01;;;;;;;13.52;11.85;;;;;;;;;;5075273;28;20044;-42
2021/04/20 07:04:48;;;;;;;12.48;10.95;;;;;;;;;;5075692;28;20057;-43
2021/04/20 07:07:33;;;;;;;13.48;11.63;;;;;;;;;;5083598;28;20047;-43
2021/04/20 07:10:11;;;;;;;14.23;11.57;;;;;;;;;;5115819;28;20489;-42
2021/04/20 07:12:38;;;;;;;12.90;11.57;;;;;;;;;;5074692;28;20048;-43
2021/04/20 07:15:06;;;;;;;13.73;12.07;;;;;;;;;;5075338;28;20102;-42
2021/04/20 07:17:40;;;;;;;16.35;11.82;;;;;;;;;;5094126;28;20476;-42
2021/04/20 07:20:19;;;;;;;14.27;12.77;;;;;;;;;;5082613;28;20044;-44
2021/04/20 07:23:05;;;;;;;13.57;12.18;;;;;;;;;;5075265;28;20049;-42
2021/04/20 07:25:50;;;;;;;13.25;11.45;;;;;;;;;;5076991;28;20048;-53
2021/04/20 07:28:37;;;;;;;13.57;12.18;;;;;;;;;;5094693;28;20040;-43
2021/04/20 07:31:10;;;;;;;14.05;12.63;;;;;;;;;;5094984;28;20051;-42
2021/04/20 07:33:46;;;;;;;13.65;11.30;;;;;;;;;;5095339;28;20044;-43
2021/04/20 07:36:17;;;;;;;15.88;12.20;;;;;;;;;;5095028;28;20366;-42
2021/04/20 07:38:50;;;;;;;12.15;10.95;;;;;;;;;;5115465;28;20039;-42
2021/04/20 07:41:29;;;;;;;12.60;11.32;;;;;;;;;;5091814;28;20147;-44
2021/04/20 07:44:07;;;;;;;11.30;9.82;;;;;;;;;;5075059;28;20032;-43
2021/04/20 07:46:37;;;;;;;11.95;10.75;;;;;;;;;;5076250;28;20347;-43
2021/04/20 07:49:09;;;;;;;11.23;10.10;;;;;;;;;;5074781;28;20053;-43
2021/04/20 07:51:50;;;;;;;24.48;21.83;;;;;;;;;;5075009;28;20056;-44
2021/04/20 07:54:35;;;;;;;14.70;13.10;;;;;;;;;;5083996;28;20473;-44
2021/04/20 07:57:24;;;;;;;13.90;10.50;;;;;;;;;;5079310;28;20044;-44
2021/04/20 07:59:51;;;;;;;14.05;12.57;;;;;;;;;;5074747;28;20048;-43
2021/04/20 08:02:39;;;;;;;13.13;11.73;;;;;;;;;;5074686;28;20052;-44
2021/04/20 08:05:13;;;;;;;10.88;9.77;;;;;;;;;;5082984;28;20060;-43
2021/04/20 08:07:43;;;;;;;12.02;10.32;;;;;;;;;;5111412;28;20396;-43
2021/04/20 08:10:12;;;;;;;12.25;11.02;;;;;;;;;;5119154;28;20039;-45
2021/04/20 08:12:49;;;;;;;12.52;11.25;;;;;;;;;;5119247;28;20035;-44
2021/04/20 08:15:28;;;;;;;12.32;11.13;;;;;;;;;;5113277;28;20040;-44
2021/04/20 08:18:04;;;;;;;11.38;10.27;;;;;;;;;;5098523;28;20036;-43
2021/04/20 08:20:32;;;;;;;12.52;11.32;;;;;;;;;;5080650;28;20040;-44
2021/04/20 08:23:00;;;;;;;13.57;12.20;;;;;;;;;;5098161;28;20115;-44
2021/04/20 08:25:51;;;;;;;12.18;10.93;;;;;;;;;;5098306;28;20047;-43
2021/04/20 08:28:31;;;;;;;13.00;11.60;;;;;;;;;;5098207;28;20043;-44
2021/04/20 08:31:04;;;;;;;12.48;11.25;;;;;;;;;;5098464;28;20048;-44
2021/04/20 08:33:32;;;;;;;12.95;11.63;;;;;;;;;;5080601;28;20046;-44
2021/04/20 08:36:02;;;;;;;13.50;12.20;;;;;;;;;;5098067;28;20048;-43
2021/04/20 08:38:30;;;;;;;13.15;11.90;;;;;;;;;;5118065;28;20039;-43
2021/04/20 08:40:56;;;;;;;12.43;11.23;;;;;;;;;;5118497;28;20051;-43
2021/04/20 08:43:40;;;;;;;12.88;11.68;;;;;;;;;;5118644;28;20032;-43
2021/04/20 08:46:22;;;;;;;14.18;12.15;;;;;;;;;;5102802;28;20037;-43
2021/04/20 08:49:08;;;;;;;14.07;12.70;;;;;;;;;;5077858;28;20365;-43
2021/04/20 08:51:37;;;;;;;13.45;12.05;;;;;;;;;;5077619;28;20040;-43
2021/04/20 08:54:10;;;;;;;14.25;11.82;;;;;;;;;;5077702;28;20051;-43
2021/04/20 08:56:49;;;;;;;14.32;12.98;;;;;;;;;;5093197;28;20374;-43
2021/04/20 08:59:19;;;;;;;13.60;12.30;;;;;;;;;;5080000;28;20039;-43
2021/04/20 09:01:58;;;;;;;13.75;12.45;;;;;;;;;;5097704;28;20044;-43
2021/04/20 09:04:34;;;;;;;14.20;12.73;;;;;;;;;;5096490;28;20059;-42
2021/04/20 09:07:21;;;;;;;14.27;12.77;;;;;;;;;;5094299;28;20431;-47
2021/04/20 09:09:48;;;;;;;15.00;13.57;;;;;;;;;;5056499;28;20489;-44
2021/04/20 09:12:15;;;;;;;14.40;13.10;;;;;;;;;;5077251;28;20036;-43
2021/04/20 09:14:44;;;;;;;14.77;13.32;;;;;;;;;;5076861;28;20340;-43
2021/04/20 09:17:14;;;;;;;13.95;12.52;;;;;;;;;;5096803;28;20054;-44
2021/04/20 09:19:52;;;;;;;14.68;13.25;;;;;;;;;;5097378;28;20048;-44
2021/04/20 09:22:25;;;;;;;14.20;12.80;;;;;;;;;;5097301;28;20056;-44
2021/04/20 09:25:03;;;;;;;13.88;12.52;;;;;;;;;;5083507;28;20040;-43
2021/04/20 09:27:40;;;;;;;15.50;13.90;;;;;;;;;;5097190;28;20054;-44
2021/04/20 09:30:11;;;;;;;14.23;12.90;;;;;;;;;;5080584;28;20218;-43
2021/04/20 09:32:39;;;;;;;13.82;12.48;;;;;;;;;;5059590;28;20048;-44
2021/04/20 09:35:06;;;;;;;12.93;11.63;;;;;;;;;;5078526;28;20434;-43
2021/04/20 09:37:35;;;;;;;13.05;10.98;;;;;;;;;;5108795;28;20044;-44
2021/04/20 09:40:04;;;;;;;12.50;11.20;;;;;;;;;;5117298;28;20051;-43
2021/04/20 09:42:31;;;;;;;12.43;11.23;;;;;;;;;;5099433;28;20049;-43
2021/04/20 09:45:15;;;;;;;11.73;10.63;;;;;;;;;;5116696;28;20036;-43
2021/04/20 09:47:45;;;;;;;12.32;11.13;;;;;;;;;;5088080;28;20043;-44
2021/04/20 09:50:18;;;;;;;11.93;10.82;;;;;;;;;;5076545;28;20047;-44
2021/04/20 09:52:57;;;;;;;13.02;11.73;;;;;;;;;;5076669;28;20443;-43
2021/04/20 09:55:29;;;;;;;13.13;11.88;;;;;;;;;;5079813;28;20044;-42
2021/04/20 09:57:56;;;;;;;14.57;12.32;;;;;;;;;;5092514;28;20363;-43
2021/04/20 10:00:23;;;;;;;13.20;11.90;;;;;;;;;;5076297;28;20040;-43
2021/04/20 10:02:50;;;;;;;13.32;11.90;;;;;;;;;;5076233;28;20041;-44
2021/04/20 10:05:29;;;;;;;13.68;12.38;;;;;;;;;;5078366;28;20045;-44
2021/04/20 10:08:06;;;;;;;12.65;11.45;;;;;;;;;;5111417;28;20354;-44
2021/04/20 10:10:32;;;;;;;12.90;11.63;;;;;;;;;;5116894;28;20039;-44
2021/04/20 10:13:18;;;;;;;13.63;12.25;;;;;;;;;;5116875;28;20042;-44
2021/04/20 10:15:47;;;;;;;13.05;11.77;;;;;;;;;;5108602;28;20036;-43
2021/04/20 10:18:23;;;;;;;13.45;12.15;;;;;;;;;;5075843;28;20048;-44
2021/04/20 10:20:59;;;;;;;13.68;12.38;;;;;;;;;;5075941;28;20067;-43
2021/04/20 10:23:45;;;;;;;13.38;12.07;;;;;;;;;;5076171;28;20044;-44
2021/04/20 10:26:11;;;;;;;13.48;12.07;;;;;;;;;;5084032;28;20482;-44
2021/04/20 10:28:50;;;;;;;12.77;11.65;;;;;;;;;;5096067;28;20075;-44
2021/04/20 10:31:35;;;;;;;11.98;10.77;;;;;;;;;;5082103;28;20041;-43
2021/04/20 10:34:02;;;;;;;13.25;12.05;;;;;;;;;;5075669;28;20040;-44
2021/04/20 10:36:31;;;;;;;11.75;10.75;;;;;;;;;;5085258;28;20458;-43
2021/04/20 10:39:00;;;;;;;11.48;10.48;;;;;;;;;;5093770;28;20439;-44
2021/04/20 10:41:34;;;;;;;11.38;10.38;;;;;;;;;;5075578;28;20044;-43
2021/04/20 10:44:02;;;;;;;10.63;9.52;;;;;;;;;;5075407;28;20474;-44
2021/04/20 10:46:30;;;;;;;10.02;9.13;;;;;;;;;;5086466;28;20378;-44
2021/04/20 10:48:58;;;;;;;10.20;9.20;;;;;;;;;;5076870;28;20047;-44
2021/04/20 10:51:30;;;;;;;10.50;9.50;;;;;;;;;;5107118;28;20350;-44
2021/04/20 10:53:58;;;;;;;10.45;9.48;;;;;;;;;;5094360;28;20044;-43
2021/04/20 10:56:25;;;;;;;9.85;8.95;;;;;;;;;;5084851;28;20366;-42
2021/04/20 10:58:55;;;;;;;10.45;9.38;;;;;;;;;;5091052;28;20052;-44
2021/04/20 11:01:23;;;;;;;9.77;8.77;;;;;;;;;;5075436;28;20252;-43
2021/04/20 11:03:52;;;;;;;10.27;9.30;;;;;;;;;;5075395;28;20044;-43
2021/04/20 11:06:19;;;;;;;10.82;9.73;;;;;;;;;;5085003;28;20043;-43
2021/04/20 11:08:47;;;;;;;8.52;7.72;;;;;;;;;;5114482;28;20028;-44
2021/04/20 11:11:19;;;;;;;10.05;9.10;;;;;;;;;;5115830;28;20047;-43
2021/04/20 11:13:47;;;;;;;8.60;7.80;;;;;;;;;;5115864;28;20046;-43
2021/04/20 11:16:15;;;;;;;7.53;6.82;;;;;;;;;;5107405;28;20036;-43
2021/04/20 11:18:44;;;;;;;7.18;6.47;;;;;;;;;;5095347;28;20405;-44
2021/04/20 11:21:13;;;;;;;7.13;6.43;;;;;;;;;;5095499;28;20044;-43
2021/04/20 11:23:53;;;;;;;8.05;7.25;;;;;;;;;;5094641;28;20324;-43
2021/04/20 11:26:21;;;;;;;8.63;7.82;;;;;;;;;;5091631;28;20032;-44
2021/04/20 11:28:52;;;;;;;8.25;7.55;;;;;;;;;;5075020;28;20032;-45
2021/04/20 11:31:18;;;;;;;7.97;7.28;;;;;;;;;;5075095;28;20056;-44
2021/04/20 11:33:53;;;;;;;7.13;6.53;;;;;;;;;;5075166;28;20047;-44
2021/04/20 11:36:22;;;;;;;7.20;6.60;;;;;;;;;;5066806;28;20044;-43
2021/04/20 11:38:51;;;;;;;6.82;6.22;;;;;;;;;;5119467;28;20043;-43
2021/04/20 11:41:19;;;;;;;7.10;6.50;;;;;;;;;;5119781;28;20039;-44
2021/04/20 11:43:52;;;;;;;6.82;6.25;;;;;;;;;;5119643;28;20039;-43
2021/04/20 11:46:21;;;;;;;6.43;5.93;;;;;;;;;;5111338;28;20431;-44
2021/04/20 11:48:50;;;;;;;7.28;6.68;;;;;;;;;;5099079;28;20070;-43
2021/04/20 11:51:17;;;;;;;7.55;6.85;;;;;;;;;;5098142;28;20040;-44
2021/04/20 11:53:45;;;;;;;6.80;6.20;;;;;;;;;;5099161;28;20048;-46
2021/04/20 11:56:12;;;;;;;6.90;6.30;;;;;;;;;;5084955;28;20044;-44
2021/04/20 11:58:44;;;;;;;7.70;6.60;;;;;;;;;;5098882;28;20048;-43
2021/04/20 12:01:13;;;;;;;6.75;6.15;;;;;;;;;;5098957;28;20047;-43
2021/04/20 12:03:56;;;;;;;7.05;6.45;;;;;;;;;;5098881;28;20036;-43
2021/04/20 12:06:24;;;;;;;6.82;6.22;;;;;;;;;;5100388;28;20434;-43
2021/04/20 12:08:57;;;;;;;6.80;6.22;;;;;;;;;;5119228;28;20332;-44
2021/04/20 12:11:26;;;;;;;7.47;6.78;;;;;;;;;;5115367;28;20047;-44
2021/04/20 12:13:53;;;;;;;7.90;7.10;;;;;;;;;;5098212;28;20040;-44
2021/04/20 12:16:20;;;;;;;6.78;6.18;;;;;;;;;;5098699;28;20043;-44
2021/04/20 12:18:49;;;;;;;7.88;7.18;;;;;;;;;;5094856;28;20048;-43
2021/04/20 12:21:21;;;;;;;6.35;5.78;;;;;;;;;;5078153;28;20079;-43
2021/04/20 12:23:50;;;;;;;7.45;6.82;;;;;;;;;;5084507;28;20039;-45
2021/04/20 12:26:17;;;;;;;7.38;6.78;;;;;;;;;;5098065;28;20040;-44
2021/04/20 12:28:47;;;;;;;7.13;6.45;;;;;;;;;;5098294;28;20320;-44
2021/04/20 12:31:14;;;;;;;7.90;7.20;;;;;;;;;;5079417;28;20036;-43
2021/04/20 12:33:56;;;;;;;8.20;7.00;;;;;;;;;;5076033;27;20398;-44
2021/04/20 12:36:24;;;;;;;7.70;7.00;;;;;;;;;;5088778;28;20036;-45
2021/04/20 12:38:52;;;;;;;8.13;7.35;;;;;;;;;;5092720;28;20047;-45
2021/04/20 12:41:19;;;;;;;8.02;7.22;;;;;;;;;;5082041;28;20045;-44
2021/04/20 12:43:49;;;;;;;8.40;7.60;;;;;;;;;;5072332;28;20040;-46
2021/04/20 12:46:16;;;;;;;10.15;7.82;;;;;;;;;;5087345;28;20048;-44
2021/04/20 12:48:45;;;;;;;8.80;8.00;;;;;;;;;;5084479;28;20041;-44
2021/04/20 12:51:18;;;;;;;8.40;7.63;;;;;;;;;;5072103;28;20041;-45
2021/04/20 12:53:46;;;;;;;8.30;7.50;;;;;;;;;;5072306;28;20049;-45
2021/04/20 12:56:24;;;;;;;8.52;7.72;;;;;;;;;;5086591;28;20036;-44
2021/04/20 12:58:52;;;;;;;8.93;8.13;;;;;;;;;;5092307;28;20047;-44
2021/04/20 13:01:23;;;;;;;8.00;7.30;;;;;;;;;;5092385;28;20040;-45
2021/04/20 13:03:50;;;;;;;8.05;7.35;;;;;;;;;;5090992;28;20044;-44
2021/04/20 13:06:17;;;;;;;8.15;7.32;;;;;;;;;;5091693;28;20362;-45
2021/04/20 13:08:45;;;;;;;7.40;6.70;;;;;;;;;;5091187;28;20044;-45
2021/04/20 13:11:13;;;;;;;7.78;7.00;;;;;;;;;;5081790;28;20036;-44
2021/04/20 13:13:41;;;;;;;8.02;7.30;;;;;;;;;;5071920;28;20055;-45
2021/04/20 13:16:09;;;;;;;9.05;8.25;;;;;;;;;;5084881;28;20434;-45
2021/04/20 13:18:36;;;;;;;8.68;7.88;;;;;;;;;;5091072;28;20040;-44
2021/04/20 13:21:05;;;;;;;7.68;6.97;;;;;;;;;;5092132;28;20066;-44
2021/04/20 13:23:31;;;;;;;7.60;6.93;;;;;;;;;;5092203;28;20059;-45
2021/04/20 13:26:03;;;;;;;7.05;6.35;;;;;;;;;;5085943;28;20048;-44
2021/04/20 13:28:30;;;;;;;6.53;5.93;;;;;;;;;;5070485;28;20045;-44
2021/04/20 13:30:57;;;;;;;7.35;6.40;;;;;;;;;;5071585;28;20045;-44
2021/04/20 13:33:26;;;;;;;6.30;5.70;;;;;;;;;;5071298;28;20451;-44
2021/04/20 13:35:57;;;;;;;5.95;5.45;;;;;;;;;;5081756;28;20036;-44
2021/04/20 13:38:25;;;;;;;6.38;5.78;;;;;;;;;;5091435;28;20040;-45
2021/04/20 13:40:53;;;;;;;6.57;5.97;;;;;;;;;;5091786;28;20434;-47
2021/04/20 13:43:20;;;;;;;7.50;6.72;;;;;;;;;;5079785;28;20048;-45
2021/04/20 13:45:51;;;;;;;6.40;5.78;;;;;;;;;;5061829;28;20332;-44
2021/04/20 13:48:22;;;;;;;7.95;6.72;;;;;;;;;;5057813;28;20045;-45
2021/04/20 13:50:50;;;;;;;7.03;6.32;;;;;;;;;;5057018;28;20048;-43
2021/04/20 13:53:30;;;;;;;6.70;6.10;;;;;;;;;;5057889;28;20052;-44
2021/04/20 13:56:26;;;;;;;7.82;6.07;;;;;;;;;;5067870;28;20044;-44
2021/04/20 13:58:54;;;;;;;7.65;6.85;;;;;;;;;;5067602;28;20041;-45
2021/04/20 14:01:22;;;;;;;7.57;6.88;;;;;;;;;;5077518;28;20043;-46
2021/04/20 14:03:52;;;;;;;7.00;6.18;;;;;;;;;;5077831;28;20431;-44
2021/04/20 14:06:19;;;;;;;7.07;6.38;;;;;;;;;;5077129;28;20048;-44
2021/04/20 14:08:55;;;;;;;7.57;6.30;;;;;;;;;;5076149;28;20051;-45
2021/04/20 14:11:23;;;;;;;6.93;5.93;;;;;;;;;;5077133;28;20036;-44
2021/04/20 14:13:50;;;;;;;6.55;5.93;;;;;;;;;;5076925;28;20462;-44
2021/04/20 14:16:19;;;;;;;8.35;6.03;;;;;;;;;;5077572;28;20051;-44
2021/04/20 14:18:51;;;;;;;7.10;6.40;;;;;;;;;;5077446;28;20052;-44
2021/04/20 14:21:20;;;;;;;6.88;6.20;;;;;;;;;;5077498;28;20037;-46
2021/04/20 14:23:48;;;;;;;7.45;6.68;;;;;;;;;;5077031;28;20339;-45
2021/04/20 14:26:16;;;;;;;7.32;6.15;;;;;;;;;;5077267;28;20052;-44
2021/04/20 14:28:44;;;;;;;7.70;6.40;;;;;;;;;;5077225;28;20048;-45
2021/04/20 14:31:12;;;;;;;8.55;6.35;;;;;;;;;;5077255;28;20044;-45
2021/04/20 14:33:41;;;;;;;9.10;6.65;;;;;;;;;;5076996;28;20059;-45
2021/04/20 14:36:10;;;;;;;6.40;5.85;;;;;;;;;;5076850;28;20347;-45
2021/04/20 14:38:41;;;;;;;6.38;5.78;;;;;;;;;;5076676;28;20064;-46
2021/04/20 14:41:11;;;;;;;6.43;5.82;;;;;;;;;;5076696;28;20043;-44
2021/04/20 14:43:41;;;;;;;7.95;6.40;;;;;;;;;;5073640;28;20374;-45
2021/04/20 14:46:10;;;;;;;7.20;6.50;;;;;;;;;;5056920;28;20045;-49
2021/04/20 14:48:37;;;;;;;7.88;6.88;;;;;;;;;;5056844;28;20045;-45
2021/04/20 14:51:04;;;;;;;6.97;6.28;;;;;;;;;;5056915;28;20055;-50